sensor_id;sensor_type;location;lat;lon;timestamp;pressure;altitude;pressure_sealevel;temperature;humidity
58879;BME280;44660;42.664;23.266;2022-10-17T00:00:37;95804.13;;;7.87;66.02
58879;BME280;44660;42.664;23.266;2022-10-17T00:03:03;95807.41;;;7.89;66.19
58879;BME280;44660;42.664;23.266;2022-10-17T00:05:28;95821.31;;;7.98;66.18
58879;BME280;44660;42.664;23.266;2022-10-17T00:07:54;95824.97;;;7.97;66.25
58879;BME280;44660;42.664;23.266;2022-10-17T00:10:20;95809.25;;;7.89;66.20
58879;BME280;44660;42.664;23.266;2022-10-17T00:12:46;95824.72;;;7.92;66.10
58879;BME280;44660;42.664;23.266;2022-10-17T00:15:15;95827.16;;;7.87;66.33
58879;BME280;44660;42.664;23.266;2022-10-17T00:17:41;95794.03;;;7.69;66.29
58879;BME280;44660;42.664;23.266;2022-10-17T00:20:06;95824.47;;;7.80;66.34
58879;BME280;44660;42.664;23.266;2022-10-17T00:22:32;95828.09;;;7.72;66.50
58879;BME280;44660;42.664;23.266;2022-10-17T00:24:57;95817.00;;;7.62;66.60
58879;BME280;44660;42.664;23.266;2022-10-17T00:27:23;95827.66;;;7.68;66.59
58879;BME280;44660;42.664;23.266;2022-10-17T00:29:49;95832.50;;;7.65;66.73
58879;BME280;44660;42.664;23.266;2022-10-17T00:32:16;95823.06;;;7.56;67.03
58879;BME280;44660;42.664;23.266;2022-10-17T00:34:41;95828.97;;;7.58;66.96
58879;BME280;44660;42.664;23.266;2022-10-17T00:37:07;95831.03;;;7.56;66.98
58879;BME280;44660;42.664;23.266;2022-10-17T00:39:32;95824.97;;;7.40;67.22
58879;BME280;44660;42.664;23.266;2022-10-17T00:41:58;95833.78;;;7.47;67.28
58879;BME280;44660;42.664;23.266;2022-10-17T00:46:56;95841.44;;;7.35;67.54
58879;BME280;44660;42.664;23.266;2022-10-17T00:49:23;95835.47;;;7.27;67.66
58879;BME280;44660;42.664;23.266;2022-10-17T00:51:55;95765.47;;;6.79;67.76
58879;BME280;44660;42.664;23.266;2022-10-17T00:54:28;95825.13;;;7.10;68.01
58879;BME280;44660;42.664;23.266;2022-10-17T00:56:55;95785.84;;;6.85;68.13
58879;BME280;44660;42.664;23.266;2022-10-17T00:59:21;95836.41;;;7.19;68.33
58879;BME280;44660;42.664;23.266;2022-10-17T01:01:53;95830.88;;;7.14;68.18
58879;BME280;44660;42.664;23.266;2022-10-17T01:04:21;95831.22;;;7.11;68.44
58879;BME280;44660;42.664;23.266;2022-10-17T01:06:46;95837.22;;;6.98;68.90
58879;BME280;44660;42.664;23.266;2022-10-17T01:09:12;95831.22;;;6.89;68.96
58879;BME280;44660;42.664;23.266;2022-10-17T01:22:22;95826.63;;;6.76;69.09
58879;BME280;44660;42.664;23.266;2022-10-17T01:27:59;95835.91;;;6.87;69.17
58879;BME280;44660;42.664;23.266;2022-10-17T01:36:08;95837.91;;;6.85;69.09
58879;BME280;44660;42.664;23.266;2022-10-17T01:39:01;95806.22;;;6.70;69.24
58879;BME280;44660;42.664;23.266;2022-10-17T01:41:56;95835.72;;;6.89;69.00
58879;BME280;44660;42.664;23.266;2022-10-17T01:44:45;95841.91;;;6.96;68.97
58879;BME280;44660;42.664;23.266;2022-10-17T01:47:16;95844.16;;;6.99;68.66
58879;BME280;44660;42.664;23.266;2022-10-17T01:49:45;95770.84;;;6.49;68.74
58879;BME280;44660;42.664;23.266;2022-10-17T01:52:40;95847.78;;;6.98;68.87
58879;BME280;44660;42.664;23.266;2022-10-17T01:55:12;95853.72;;;7.00;68.53
58879;BME280;44660;42.664;23.266;2022-10-17T01:57:42;95856.38;;;7.00;68.49
58879;BME280;44660;42.664;23.266;2022-10-17T02:00:14;95854.47;;;6.94;68.80
58879;BME280;44660;42.664;23.266;2022-10-17T02:02:42;95859.13;;;6.92;68.95
58879;BME280;44660;42.664;23.266;2022-10-17T02:05:09;95836.84;;;6.79;68.78
58879;BME280;44660;42.664;23.266;2022-10-17T02:07:34;95853.31;;;6.81;68.99
58879;BME280;44660;42.664;23.266;2022-10-17T02:10:00;95848.03;;;6.81;68.97
58879;BME280;44660;42.664;23.266;2022-10-17T02:17:43;95858.34;;;6.76;68.97
58879;BME280;44660;42.664;23.266;2022-10-17T02:23:00;95852.25;;;6.76;68.96
58879;BME280;44660;42.664;23.266;2022-10-17T02:25:35;95854.97;;;6.82;68.87
58879;BME280;44660;42.664;23.266;2022-10-17T02:28:19;95859.88;;;6.85;68.67
58879;BME280;44660;42.664;23.266;2022-10-17T02:30:47;95863.91;;;6.81;68.70
58879;BME280;44660;42.664;23.266;2022-10-17T02:33:24;95863.84;;;6.75;68.66
58879;BME280;44660;42.664;23.266;2022-10-17T02:35:53;95858.47;;;6.68;68.91
58879;BME280;44660;42.664;23.266;2022-10-17T02:38:21;95881.25;;;6.69;69.25
58879;BME280;44660;42.664;23.266;2022-10-17T02:40:50;95876.16;;;6.67;69.02
58879;BME280;44660;42.664;23.266;2022-10-17T02:43:16;95880.38;;;6.62;69.11
58879;BME280;44660;42.664;23.266;2022-10-17T02:45:42;95872.25;;;6.63;69.17
58879;BME280;44660;42.664;23.266;2022-10-17T02:48:12;95875.81;;;6.56;69.42
58879;BME280;44660;42.664;23.266;2022-10-17T02:53:30;95887.66;;;6.60;69.06
58879;BME280;44660;42.664;23.266;2022-10-17T02:55:59;95882.00;;;6.63;68.98
58879;BME280;44660;42.664;23.266;2022-10-17T02:58:30;95877.00;;;6.53;69.30
58879;BME280;44660;42.664;23.266;2022-10-17T03:00:57;95889.63;;;6.58;69.19
58879;BME280;44660;42.664;23.266;2022-10-17T03:03:29;95888.84;;;6.57;68.89
58879;BME280;44660;42.664;23.266;2022-10-17T03:05:55;95894.13;;;6.57;69.10
58879;BME280;44660;42.664;23.266;2022-10-17T03:08:21;95891.47;;;6.57;69.07
58879;BME280;44660;42.664;23.266;2022-10-17T03:10:46;95878.84;;;6.37;69.06
58879;BME280;44660;42.664;23.266;2022-10-17T03:13:12;95893.84;;;6.37;69.12
58879;BME280;44660;42.664;23.266;2022-10-17T03:15:38;95902.16;;;6.49;68.89
58879;BME280;44660;42.664;23.266;2022-10-17T03:18:03;95878.47;;;6.26;68.91
58879;BME280;44660;42.664;23.266;2022-10-17T03:20:29;95905.06;;;6.39;69.28
58879;BME280;44660;42.664;23.266;2022-10-17T03:22:54;95906.00;;;6.31;69.31
58879;BME280;44660;42.664;23.266;2022-10-17T03:25:20;95882.84;;;6.03;69.65
58879;BME280;44660;42.664;23.266;2022-10-17T03:27:45;95844.19;;;5.72;70.10
58879;BME280;44660;42.664;23.266;2022-10-17T03:30:11;95907.44;;;6.19;69.90
58879;BME280;44660;42.664;23.266;2022-10-17T03:32:36;95913.66;;;6.26;69.64
58879;BME280;44660;42.664;23.266;2022-10-17T03:35:02;95914.91;;;6.30;69.34
58879;BME280;44660;42.664;23.266;2022-10-17T03:37:28;95909.09;;;6.35;69.28
58879;BME280;44660;42.664;23.266;2022-10-17T03:39:53;95906.00;;;6.31;69.18
58879;BME280;44660;42.664;23.266;2022-10-17T03:42:19;95912.47;;;6.29;69.12
58879;BME280;44660;42.664;23.266;2022-10-17T03:44:44;95894.59;;;6.16;69.17
58879;BME280;44660;42.664;23.266;2022-10-17T03:47:09;95914.56;;;6.18;69.52
58879;BME280;44660;42.664;23.266;2022-10-17T03:49:35;95919.66;;;6.20;69.43
58879;BME280;44660;42.664;23.266;2022-10-17T03:52:00;95910.88;;;6.19;69.28
58879;BME280;44660;42.664;23.266;2022-10-17T03:54:26;95908.06;;;6.06;69.63
58879;BME280;44660;42.664;23.266;2022-10-17T03:56:51;95919.09;;;6.10;69.96
58879;BME280;44660;42.664;23.266;2022-10-17T03:59:17;95907.50;;;5.96;69.82
58879;BME280;44660;42.664;23.266;2022-10-17T04:01:42;95924.19;;;6.11;69.80
58879;BME280;44660;42.664;23.266;2022-10-17T04:04:08;95922.47;;;6.18;69.60
58879;BME280;44660;42.664;23.266;2022-10-17T04:06:34;95919.19;;;6.16;69.45
58879;BME280;44660;42.664;23.266;2022-10-17T04:08:59;95924.84;;;6.13;69.39
58879;BME280;44660;42.664;23.266;2022-10-17T04:11:25;95915.22;;;5.97;69.98
58879;BME280;44660;42.664;23.266;2022-10-17T04:13:55;95929.66;;;6.10;69.84
58879;BME280;44660;42.664;23.266;2022-10-17T04:16:21;95886.16;;;5.82;69.76
58879;BME280;44660;42.664;23.266;2022-10-17T04:18:52;95903.38;;;5.93;69.61
58879;BME280;44660;42.664;23.266;2022-10-17T04:21:18;95923.19;;;6.12;69.39
58879;BME280;44660;42.664;23.266;2022-10-17T04:23:43;95932.78;;;6.13;69.69
58879;BME280;44660;42.664;23.266;2022-10-17T04:26:09;95913.13;;;5.93;69.34
58879;BME280;44660;42.664;23.266;2022-10-17T04:28:34;95944.66;;;6.09;69.57
58879;BME280;44660;42.664;23.266;2022-10-17T04:31:05;95898.00;;;5.86;69.56
58879;BME280;44660;42.664;23.266;2022-10-17T04:33:31;95916.13;;;5.89;69.60
58879;BME280;44660;42.664;23.266;2022-10-17T04:35:58;95941.81;;;5.96;69.74
58879;BME280;44660;42.664;23.266;2022-10-17T04:38:24;95925.31;;;5.94;69.76
58879;BME280;44660;42.664;23.266;2022-10-17T04:40:50;95927.28;;;6.00;69.85
58879;BME280;44660;42.664;23.266;2022-10-17T04:43:15;95929.19;;;6.06;69.70
58879;BME280;44660;42.664;23.266;2022-10-17T04:45:41;95924.63;;;6.00;69.42
58879;BME280;44660;42.664;23.266;2022-10-17T04:48:06;95932.91;;;5.97;69.62
58879;BME280;44660;42.664;23.266;2022-10-17T04:50:32;95938.59;;;6.09;69.28
58879;BME280;44660;42.664;23.266;2022-10-17T04:52:58;95942.13;;;6.01;69.37
58879;BME280;44660;42.664;23.266;2022-10-17T04:55:23;95945.94;;;5.98;69.66
58879;BME280;44660;42.664;23.266;2022-10-17T04:57:49;95950.66;;;6.03;69.56
58879;BME280;44660;42.664;23.266;2022-10-17T05:00:14;95955.88;;;6.11;69.52
58879;BME280;44660;42.664;23.266;2022-10-17T05:02:40;95945.13;;;6.13;69.32
58879;BME280;44660;42.664;23.266;2022-10-17T05:05:05;95963.44;;;6.14;69.22
58879;BME280;44660;42.664;23.266;2022-10-17T05:07:31;95964.28;;;6.15;69.33
58879;BME280;44660;42.664;23.266;2022-10-17T05:09:56;95956.53;;;6.13;69.22
58879;BME280;44660;42.664;23.266;2022-10-17T05:12:23;95960.19;;;6.12;69.41
58879;BME280;44660;42.664;23.266;2022-10-17T05:14:48;95968.44;;;6.09;69.60
58879;BME280;44660;42.664;23.266;2022-10-17T05:17:13;95971.03;;;6.17;69.42
58879;BME280;44660;42.664;23.266;2022-10-17T05:19:39;95972.00;;;6.16;69.33
58879;BME280;44660;42.664;23.266;2022-10-17T05:22:04;95970.47;;;6.07;69.67
58879;BME280;44660;42.664;23.266;2022-10-17T05:24:30;95983.56;;;6.15;70.28
58879;BME280;44660;42.664;23.266;2022-10-17T05:26:56;95982.22;;;6.19;70.08
58879;BME280;44660;42.664;23.266;2022-10-17T05:29:21;95980.41;;;6.20;69.84
58879;BME280;44660;42.664;23.266;2022-10-17T05:31:47;95988.31;;;6.20;69.92
58879;BME280;44660;42.664;23.266;2022-10-17T05:34:12;95986.50;;;6.20;69.77
58879;BME280;44660;42.664;23.266;2022-10-17T05:36:37;95998.91;;;6.20;69.75
58879;BME280;44660;42.664;23.266;2022-10-17T05:39:03;95998.81;;;6.28;69.60
58879;BME280;44660;42.664;23.266;2022-10-17T05:41:28;95994.53;;;6.42;69.21
58879;BME280;44660;42.664;23.266;2022-10-17T05:43:54;95989.19;;;6.50;68.86
58879;BME280;44660;42.664;23.266;2022-10-17T05:46:19;95988.47;;;6.57;68.68
58879;BME280;44660;42.664;23.266;2022-10-17T05:48:44;96000.75;;;6.64;68.25
58879;BME280;44660;42.664;23.266;2022-10-17T05:51:10;95987.09;;;6.61;68.34
58879;BME280;44660;42.664;23.266;2022-10-17T05:53:39;96001.22;;;6.68;68.37
58879;BME280;44660;42.664;23.266;2022-10-17T05:56:07;95934.50;;;6.36;68.14
58879;BME280;44660;42.664;23.266;2022-10-17T05:58:33;96011.22;;;6.88;67.85
58879;BME280;44660;42.664;23.266;2022-10-17T06:01:04;96013.13;;;6.94;67.65
58879;BME280;44660;42.664;23.266;2022-10-17T06:03:31;96012.41;;;7.00;67.55
58879;BME280;44660;42.664;23.266;2022-10-17T06:06:02;96006.53;;;7.05;67.25
58879;BME280;44660;42.664;23.266;2022-10-17T06:08:28;96016.03;;;7.14;67.09
58879;BME280;44660;42.664;23.266;2022-10-17T06:10:53;96017.22;;;7.11;67.03
58879;BME280;44660;42.664;23.266;2022-10-17T06:13:18;96015.13;;;7.22;66.73
58879;BME280;44660;42.664;23.266;2022-10-17T06:15:44;96021.84;;;7.24;66.56
58879;BME280;44660;42.664;23.266;2022-10-17T06:18:10;96027.63;;;7.13;72.59
58879;BME280;44660;42.664;23.266;2022-10-17T06:20:36;96033.47;;;7.45;71.10
58879;BME280;44660;42.664;23.266;2022-10-17T06:23:02;96025.34;;;7.46;68.88
58879;BME280;44660;42.664;23.266;2022-10-17T06:25:32;96034.00;;;7.55;67.58
58879;BME280;44660;42.664;23.266;2022-10-17T06:27:58;96032.44;;;7.61;66.88
58879;BME280;44660;42.664;23.266;2022-10-17T06:30:23;96036.22;;;7.73;65.89
58879;BME280;44660;42.664;23.266;2022-10-17T06:32:48;96035.34;;;7.66;65.85
58879;BME280;44660;42.664;23.266;2022-10-17T06:35:14;96042.81;;;7.77;66.20
58879;BME280;44660;42.664;23.266;2022-10-17T06:37:39;96044.94;;;7.89;65.77
58879;BME280;44660;42.664;23.266;2022-10-17T06:40:05;96047.72;;;7.80;65.69
58879;BME280;44660;42.664;23.266;2022-10-17T06:42:33;96027.16;;;7.61;65.74
58879;BME280;44660;42.664;23.266;2022-10-17T06:44:58;96052.38;;;7.78;65.54
58879;BME280;44660;42.664;23.266;2022-10-17T06:47:24;96046.84;;;7.95;64.73
58879;BME280;44660;42.664;23.266;2022-10-17T06:49:49;96051.69;;;8.13;64.03
58879;BME280;44660;42.664;23.266;2022-10-17T06:52:15;96054.16;;;8.14;64.14
58879;BME280;44660;42.664;23.266;2022-10-17T06:54:42;96032.06;;;8.07;63.81
58879;BME280;44660;42.664;23.266;2022-10-17T06:57:08;96049.00;;;8.34;63.50
58879;BME280;44660;42.664;23.266;2022-10-17T06:59:33;96052.16;;;8.45;63.16
58879;BME280;44660;42.664;23.266;2022-10-17T07:02:02;96034.56;;;8.37;63.14
58879;BME280;44660;42.664;23.266;2022-10-17T07:04:27;96049.91;;;8.42;63.20
58879;BME280;44660;42.664;23.266;2022-10-17T07:06:53;96058.38;;;8.52;62.99
58879;BME280;44660;42.664;23.266;2022-10-17T07:09:18;96047.63;;;8.67;62.33
58879;BME280;44660;42.664;23.266;2022-10-17T07:11:44;96045.84;;;8.74;62.11
58879;BME280;44660;42.664;23.266;2022-10-17T07:14:09;96042.66;;;8.86;61.66
58879;BME280;44660;42.664;23.266;2022-10-17T07:16:35;96040.47;;;8.96;61.58
58879;BME280;44660;42.664;23.266;2022-10-17T07:19:01;96045.84;;;9.09;61.20
58879;BME280;44660;42.664;23.266;2022-10-17T07:21:26;96033.41;;;9.10;60.87
58879;BME280;44660;42.664;23.266;2022-10-17T07:23:52;96047.22;;;9.40;60.49
58879;BME280;44660;42.664;23.266;2022-10-17T07:26:18;96045.63;;;9.59;60.04
58879;BME280;44660;42.664;23.266;2022-10-17T07:28:46;96044.25;;;9.70;60.08
58879;BME280;44660;42.664;23.266;2022-10-17T07:31:16;96054.72;;;9.99;59.41
58879;BME280;44660;42.664;23.266;2022-10-17T07:33:42;96053.94;;;10.25;58.28
58879;BME280;44660;42.664;23.266;2022-10-17T07:36:08;96048.63;;;10.65;57.36
58879;BME280;44660;42.664;23.266;2022-10-17T07:38:35;96048.97;;;11.09;56.27
58879;BME280;44660;42.664;23.266;2022-10-17T07:41:02;96047.84;;;12.71;52.60
58879;BME280;44660;42.664;23.266;2022-10-17T07:43:29;96032.44;;;16.84;43.35
58879;BME280;44660;42.664;23.266;2022-10-17T07:45:55;96018.81;;;20.87;34.52
58879;BME280;44660;42.664;23.266;2022-10-17T07:48:22;96030.28;;;24.11;29.00
58879;BME280;44660;42.664;23.266;2022-10-17T07:50:48;96026.38;;;26.87;25.15
58879;BME280;44660;42.664;23.266;2022-10-17T07:53:14;96030.09;;;29.47;22.04
58879;BME280;44660;42.664;23.266;2022-10-17T07:55:40;96015.72;;;31.53;19.57
58879;BME280;44660;42.664;23.266;2022-10-17T07:58:07;95999.28;;;33.32;18.24
58879;BME280;44660;42.664;23.266;2022-10-17T08:00:33;96013.44;;;34.69;16.46
58879;BME280;44660;42.664;23.266;2022-10-17T08:02:58;95993.53;;;35.45;15.13
58879;BME280;44660;42.664;23.266;2022-10-17T08:05:24;96013.41;;;36.35;14.93
58879;BME280;44660;42.664;23.266;2022-10-17T08:07:53;95981.81;;;37.46;13.24
58879;BME280;44660;42.664;23.266;2022-10-17T08:10:18;95995.81;;;38.23;13.02
58879;BME280;44660;42.664;23.266;2022-10-17T08:12:44;95992.97;;;39.04;12.09
58879;BME280;44660;42.664;23.266;2022-10-17T08:15:09;95990.63;;;40.11;12.01
58879;BME280;44660;42.664;23.266;2022-10-17T08:17:36;95984.81;;;40.83;10.97
58879;BME280;44660;42.664;23.266;2022-10-17T08:20:05;95984.41;;;41.48;11.09
58879;BME280;44660;42.664;23.266;2022-10-17T08:22:31;95982.97;;;42.16;10.30
58879;BME280;44660;42.664;23.266;2022-10-17T08:24:57;95971.09;;;42.08;10.29
58879;BME280;44660;42.664;23.266;2022-10-17T08:27:22;95963.00;;;42.52;10.01
58879;BME280;44660;42.664;23.266;2022-10-17T08:29:50;95974.56;;;43.16;9.49
58879;BME280;44660;42.664;23.266;2022-10-17T08:32:23;95967.38;;;43.39;9.41
58879;BME280;44660;42.664;23.266;2022-10-17T08:34:51;95969.56;;;43.79;8.98
58879;BME280;44660;42.664;23.266;2022-10-17T08:37:16;95952.84;;;44.39;8.39
58879;BME280;44660;42.664;23.266;2022-10-17T08:39:42;95978.44;;;44.98;8.02
58879;BME280;44660;42.664;23.266;2022-10-17T08:42:40;95963.22;;;45.48;7.98
58879;BME280;44660;42.664;23.266;2022-10-17T08:46:17;95963.94;;;45.36;7.52
58879;BME280;44660;42.664;23.266;2022-10-17T08:48:16;95960.31;;;45.19;7.78
58879;BME280;44660;42.664;23.266;2022-10-17T08:50:50;95963.75;;;44.74;7.54
58879;BME280;44660;42.664;23.266;2022-10-17T08:55:52;95966.56;;;43.42;8.58
58879;BME280;44660;42.664;23.266;2022-10-17T08:58:19;95961.66;;;43.22;9.01
58879;BME280;44660;42.664;23.266;2022-10-17T09:00:51;95959.34;;;45.09;8.01
58879;BME280;44660;42.664;23.266;2022-10-17T09:06:22;95955.16;;;46.13;7.46
58879;BME280;44660;42.664;23.266;2022-10-17T09:14:46;95961.66;;;45.31;7.72
58879;BME280;44660;42.664;23.266;2022-10-17T09:20:08;95959.19;;;43.76;7.92
58879;BME280;44660;42.664;23.266;2022-10-17T09:22:43;95965.28;;;45.11;7.67
58879;BME280;44660;42.664;23.266;2022-10-17T09:25:15;95953.66;;;45.29;7.02
58879;BME280;44660;42.664;23.266;2022-10-17T09:28:42;95957.56;;;44.22;7.61
58879;BME280;44660;42.664;23.266;2022-10-17T09:30:41;95957.13;;;44.64;7.64
58879;BME280;44660;42.664;23.266;2022-10-17T09:33:18;95957.44;;;45.23;6.82
58879;BME280;44660;42.664;23.266;2022-10-17T09:35:45;95948.19;;;45.88;6.73
58879;BME280;44660;42.664;23.266;2022-10-17T09:38:19;95944.38;;;46.11;6.67
58879;BME280;44660;42.664;23.266;2022-10-17T09:40:52;95944.41;;;46.24;6.64
58879;BME280;44660;42.664;23.266;2022-10-17T09:43:19;95947.03;;;46.02;6.32
58879;BME280;44660;42.664;23.266;2022-10-17T09:48:28;95931.09;;;43.83;7.14
58879;BME280;44660;42.664;23.266;2022-10-17T09:50:56;95936.94;;;44.12;7.59
58879;BME280;44660;42.664;23.266;2022-10-17T09:53:29;95918.47;;;44.55;6.80
58879;BME280;44660;42.664;23.266;2022-10-17T09:56:00;95923.94;;;44.22;6.59
58879;BME280;44660;42.664;23.266;2022-10-17T09:58:55;95918.28;;;42.56;7.29
58879;BME280;44660;42.664;23.266;2022-10-17T10:01:26;95932.66;;;42.54;7.62
58879;BME280;44660;42.664;23.266;2022-10-17T10:04:13;95920.56;;;43.19;7.07
58879;BME280;44660;42.664;23.266;2022-10-17T10:06:39;95920.28;;;41.83;8.30
58879;BME280;44660;42.664;23.266;2022-10-17T10:09:06;95913.13;;;41.85;7.67
58879;BME280;44660;42.664;23.266;2022-10-17T10:11:53;95914.06;;;40.62;7.77
58879;BME280;44660;42.664;23.266;2022-10-17T10:14:29;95921.44;;;40.09;8.49
58879;BME280;44660;42.664;23.266;2022-10-17T10:17:01;95915.03;;;38.50;9.06
58879;BME280;44660;42.664;23.266;2022-10-17T10:22:07;95912.53;;;34.32;11.37
58879;BME280;44660;42.664;23.266;2022-10-17T10:24:38;95922.19;;;31.12;13.72
58879;BME280;44660;42.664;23.266;2022-10-17T10:27:04;95877.09;;;29.67;15.05
58879;BME280;44660;42.664;23.266;2022-10-17T10:29:33;95907.56;;;29.65;14.65
58879;BME280;44660;42.664;23.266;2022-10-17T10:32:27;95907.84;;;28.47;15.56
58879;BME280;44660;42.664;23.266;2022-10-17T10:34:58;95901.59;;;27.77;16.40
58879;BME280;44660;42.664;23.266;2022-10-17T10:37:32;95907.78;;;27.33;16.31
58879;BME280;44660;42.664;23.266;2022-10-17T10:40:02;95900.38;;;27.25;16.62
58879;BME280;44660;42.664;23.266;2022-10-17T10:44:58;95879.16;;;26.42;18.25
58879;BME280;44660;42.664;23.266;2022-10-17T10:47:29;95885.25;;;26.47;17.80
58879;BME280;44660;42.664;23.266;2022-10-17T10:50:21;95894.66;;;26.64;18.24
58879;BME280;44660;42.664;23.266;2022-10-17T10:53:07;95894.53;;;26.15;18.11
58879;BME280;44660;42.664;23.266;2022-10-17T10:56:16;95886.91;;;25.66;18.40
58879;BME280;44660;42.664;23.266;2022-10-17T11:02:12;95886.38;;;25.14;18.68
58879;BME280;44660;42.664;23.266;2022-10-17T11:12:29;95877.06;;;24.59;19.54
58879;BME280;44660;42.664;23.266;2022-10-17T11:18:03;95877.41;;;24.71;20.25
58879;BME280;44660;42.664;23.266;2022-10-17T11:20:53;95864.34;;;24.40;20.06
58879;BME280;44660;42.664;23.266;2022-10-17T11:23:35;95871.38;;;24.41;20.74
58879;BME280;44660;42.664;23.266;2022-10-17T11:26:16;95860.50;;;24.41;20.10
58879;BME280;44660;42.664;23.266;2022-10-17T11:28:51;95819.16;;;24.44;19.58
58879;BME280;44660;42.664;23.266;2022-10-17T11:31:17;95858.88;;;24.87;19.12
58879;BME280;44660;42.664;23.266;2022-10-17T11:33:55;95860.59;;;24.83;18.44
58879;BME280;44660;42.664;23.266;2022-10-17T11:36:26;95862.59;;;25.05;18.23
58879;BME280;44660;42.664;23.266;2022-10-17T11:39:02;95857.19;;;24.91;18.56
58879;BME280;44660;42.664;23.266;2022-10-17T11:41:44;95862.09;;;24.75;19.74
58879;BME280;44660;42.664;23.266;2022-10-17T11:44:28;95813.84;;;24.39;19.30
58879;BME280;44660;42.664;23.266;2022-10-17T11:50:08;95846.28;;;24.77;18.65
58879;BME280;44660;42.664;23.266;2022-10-17T11:52:38;95848.09;;;24.82;18.36
58879;BME280;44660;42.664;23.266;2022-10-17T12:03:15;95833.25;;;23.80;18.59
58879;BME280;44660;42.664;23.266;2022-10-17T12:08:34;95840.31;;;23.81;20.75
58879;BME280;44660;42.664;23.266;2022-10-17T12:14:01;95836.41;;;23.88;20.97
58879;BME280;44660;42.664;23.266;2022-10-17T12:21:26;95839.09;;;23.17;20.20
58879;BME280;44660;42.664;23.266;2022-10-17T12:23:53;95808.97;;;22.94;21.29
58879;BME280;44660;42.664;23.266;2022-10-17T12:26:26;95836.31;;;23.22;21.26
58879;BME280;44660;42.664;23.266;2022-10-17T12:28:52;95827.53;;;23.30;20.96
58879;BME280;44660;42.664;23.266;2022-10-17T12:34:00;95790.31;;;23.11;21.13
58879;BME280;44660;42.664;23.266;2022-10-17T12:52:23;95835.06;;;23.52;21.15
58879;BME280;44660;42.664;23.266;2022-10-17T12:54:59;95834.91;;;23.62;20.83
58879;BME280;44660;42.664;23.266;2022-10-17T13:00:20;95828.06;;;23.65;20.08
58879;BME280;44660;42.664;23.266;2022-10-17T13:02:47;95828.22;;;23.55;20.74
58879;BME280;44660;42.664;23.266;2022-10-17T13:05:33;95813.59;;;23.37;21.10
58879;BME280;44660;42.664;23.266;2022-10-17T13:08:03;95824.28;;;23.28;21.49
58879;BME280;44660;42.664;23.266;2022-10-17T13:10:34;95822.91;;;23.06;21.36
58879;BME280;44660;42.664;23.266;2022-10-17T13:13:34;95802.84;;;23.07;22.15
58879;BME280;44660;42.664;23.266;2022-10-17T13:15:53;95821.03;;;23.26;21.38
58879;BME280;44660;42.664;23.266;2022-10-17T13:18:27;95822.81;;;23.17;21.28
58879;BME280;44660;42.664;23.266;2022-10-17T13:21:01;95791.69;;;22.90;21.76
58879;BME280;44660;42.664;23.266;2022-10-17T13:23:35;95801.09;;;22.73;21.16
58879;BME280;44660;42.664;23.266;2022-10-17T13:26:25;95825.50;;;22.49;21.59
58879;BME280;44660;42.664;23.266;2022-10-17T13:29:10;95826.88;;;22.46;22.21
58879;BME280;44660;42.664;23.266;2022-10-17T13:31:38;95816.50;;;22.54;22.33
58879;BME280;44660;42.664;23.266;2022-10-17T13:34:14;95823.53;;;22.55;22.09
58879;BME280;44660;42.664;23.266;2022-10-17T13:36:41;95826.88;;;22.46;22.36
58879;BME280;44660;42.664;23.266;2022-10-17T13:39:09;95797.44;;;22.34;23.06
58879;BME280;44660;42.664;23.266;2022-10-17T13:41:38;95811.91;;;22.54;23.08
58879;BME280;44660;42.664;23.266;2022-10-17T13:44:25;95820.44;;;22.66;22.38
58879;BME280;44660;42.664;23.266;2022-10-17T13:46:52;95826.41;;;22.63;22.37
58879;BME280;44660;42.664;23.266;2022-10-17T13:49:39;95790.44;;;22.58;22.81
58879;BME280;44660;42.664;23.266;2022-10-17T13:52:13;95824.09;;;22.76;22.08
58879;BME280;44660;42.664;23.266;2022-10-17T13:54:41;95831.16;;;22.53;22.08
58879;BME280;44660;42.664;23.266;2022-10-17T13:57:33;95834.06;;;22.27;22.18
58879;BME280;44660;42.664;23.266;2022-10-17T14:00:01;95828.25;;;22.14;22.26
58879;BME280;44660;42.664;23.266;2022-10-17T14:02:32;95834.84;;;22.03;22.34
58879;BME280;44660;42.664;23.266;2022-10-17T14:08:01;95766.00;;;21.45;22.53
58879;BME280;44660;42.664;23.266;2022-10-17T14:10:33;95836.09;;;21.87;22.90
58879;BME280;44660;42.664;23.266;2022-10-17T14:12:59;95836.88;;;21.87;22.60
58879;BME280;44660;42.664;23.266;2022-10-17T14:15:34;95846.97;;;21.76;23.51
58879;BME280;44660;42.664;23.266;2022-10-17T14:18:07;95849.03;;;21.55;23.67
58879;BME280;44660;42.664;23.266;2022-10-17T14:20:34;95832.03;;;21.39;24.22
58879;BME280;44660;42.664;23.266;2022-10-17T14:23:00;95847.94;;;21.51;24.30
58879;BME280;44660;42.664;23.266;2022-10-17T14:25:31;95831.56;;;21.27;24.15
58879;BME280;44660;42.664;23.266;2022-10-17T14:30:52;95856.66;;;20.77;24.88
58879;BME280;44660;42.664;23.266;2022-10-17T14:33:25;95824.34;;;20.41;25.46
58879;BME280;44660;42.664;23.266;2022-10-17T14:35:54;95843.28;;;20.26;26.74
58879;BME280;44660;42.664;23.266;2022-10-17T14:38:20;95840.59;;;19.95;26.88
58879;BME280;44660;42.664;23.266;2022-10-17T14:40:59;95848.44;;;19.81;27.41
58879;BME280;44660;42.664;23.266;2022-10-17T14:43:28;95855.16;;;19.68;27.53
58879;BME280;44660;42.664;23.266;2022-10-17T14:45:58;95852.19;;;19.64;28.04
58879;BME280;44660;42.664;23.266;2022-10-17T14:48:25;95856.19;;;19.41;28.56
58879;BME280;44660;42.664;23.266;2022-10-17T14:53:30;95860.47;;;19.16;29.30
58879;BME280;44660;42.664;23.266;2022-10-17T14:56:00;95868.72;;;18.94;29.59
58879;BME280;44660;42.664;23.266;2022-10-17T14:58:28;95867.81;;;18.73;29.62
58879;BME280;44660;42.664;23.266;2022-10-17T15:00:56;95879.03;;;18.54;30.57
58879;BME280;44660;42.664;23.266;2022-10-17T15:03:22;95854.88;;;18.27;30.43
58879;BME280;44660;42.664;23.266;2022-10-17T15:05:48;95883.16;;;18.30;31.02
58879;BME280;44660;42.664;23.266;2022-10-17T15:08:16;95877.34;;;18.43;31.19
58879;BME280;44660;42.664;23.266;2022-10-17T15:10:43;95877.59;;;18.04;32.02